createdAt,value
2018-07-25T00:00:15.067Z,100164.72
2018-07-25T00:02:42.817Z,100168.58
2018-07-25T00:05:10.655Z,100167.09
2018-07-25T00:07:38.521Z,100172.77
2018-07-25T00:10:08.547Z,100179.14
2018-07-25T00:12:36.412Z,100178.34
2018-07-25T00:15:04.656Z,100178.66
2018-07-25T00:17:32.491Z,100178.22
2018-07-25T00:20:00.295Z,100180.21
2018-07-25T00:22:28.231Z,100178.67
2018-07-25T00:24:56.067Z,100175.45
2018-07-25T00:27:23.879Z,100177.08
2018-07-25T00:29:51.723Z,100171.94
2018-07-25T00:32:19.540Z,100171.03
2018-07-25T00:34:47.358Z,100165.06
2018-07-25T00:37:15.115Z,100173.19
2018-07-25T00:39:42.951Z,100168.56
2018-07-25T00:42:10.775Z,100161.38
2018-07-25T00:44:38.628Z,100167.66
2018-07-25T00:47:06.371Z,100170.58
2018-07-25T00:49:34.187Z,100167.55
2018-07-25T00:52:01.964Z,100163.78
2018-07-25T00:54:29.799Z,100169.98
2018-07-25T00:56:57.583Z,100168.17
2018-07-25T00:59:25.390Z,100166.97
2018-07-25T01:01:53.188Z,100165.98
2018-07-25T01:04:21.026Z,100167.42
2018-07-25T01:06:48.779Z,100162.95
2018-07-25T01:09:16.603Z,100161.02
2018-07-25T01:11:44.427Z,100165.98
2018-07-25T01:14:12.247Z,100165.21
2018-07-25T01:16:40.028Z,100163.58
2018-07-25T01:19:07.804Z,100168.12
2018-07-25T01:21:35.606Z,100170.22
2018-07-25T01:24:03.488Z,100167.38
2018-07-25T01:26:31.291Z,100165.75
2018-07-25T01:28:59.075Z,100169.89
2018-07-25T01:31:26.912Z,100165.05
2018-07-25T01:33:54.731Z,100167.88
2018-07-25T01:36:22.535Z,100167.34
2018-07-25T01:38:50.355Z,100172.63
2018-07-25T01:41:18.159Z,100181.03
2018-07-25T01:43:45.937Z,100187.49
2018-07-25T01:46:13.683Z,100185.03
2018-07-25T01:48:41.459Z,100178.56
2018-07-25T01:51:09.295Z,100179.13
2018-07-25T01:53:37.093Z,100182.31
2018-07-25T01:56:05.296Z,100182.73
2018-07-25T01:58:33.108Z,100186.92
2018-07-25T02:01:00.887Z,100179.95
2018-07-25T02:03:28.683Z,100184.52
2018-07-25T02:05:56.458Z,100190.59
2018-07-25T02:08:24.263Z,100186.17
2018-07-25T02:10:52.071Z,100189.21
2018-07-25T02:13:19.863Z,100194.59
2018-07-25T02:15:47.695Z,100193.63
2018-07-25T02:18:15.511Z,100188.39
2018-07-25T02:20:43.376Z,100192.23
2018-07-25T02:23:11.162Z,100190.52
2018-07-25T02:25:38.953Z,100185.22
2018-07-25T02:28:06.763Z,100191.74
2018-07-25T02:30:34.536Z,100195.77
2018-07-25T02:33:02.369Z,100197.83
2018-07-25T02:35:30.175Z,100192.41
2018-07-25T02:37:57.995Z,100192.13
2018-07-25T02:40:25.807Z,100199.23
2018-07-25T02:42:53.892Z,100202.08
2018-07-25T02:45:21.647Z,100205.05
2018-07-25T02:47:49.455Z,100206.17
2018-07-25T02:50:17.227Z,100207.58
2018-07-25T02:52:45.024Z,100212.56
2018-07-25T02:55:12.732Z,100206.41
2018-07-25T02:57:40.506Z,100212.53
2018-07-25T03:00:08.460Z,100215.30
2018-07-25T03:02:36.263Z,100211.01
2018-07-25T03:05:04.244Z,100212.68
2018-07-25T03:07:32.187Z,100228.88
2018-07-25T03:10:00.004Z,100222.56
2018-07-25T03:12:27.827Z,100228.64
2018-07-25T03:14:55.579Z,100226.58
2018-07-25T03:17:23.387Z,100224.11
2018-07-25T03:19:51.211Z,100231.95
2018-07-25T03:22:19.036Z,100229.86
2018-07-25T03:24:46.779Z,100227.66
2018-07-25T03:27:14.597Z,100231.45
2018-07-25T03:29:42.386Z,100238.75
2018-07-25T03:32:10.215Z,100238.20
2018-07-25T03:34:37.991Z,100234.69
2018-07-25T03:37:05.792Z,100238.16
2018-07-25T03:39:33.538Z,100238.66
2018-07-25T03:42:01.288Z,100241.63
2018-07-25T03:44:29.103Z,100247.88
2018-07-25T03:46:56.847Z,100246.05
2018-07-25T03:49:24.561Z,100243.86
2018-07-25T03:51:52.403Z,100245.17
2018-07-25T03:54:20.211Z,100249.97
2018-07-25T03:56:47.950Z,100257.96
2018-07-25T03:59:15.722Z,100254.11
2018-07-25T04:01:43.567Z,100256.91
2018-07-25T04:04:11.405Z,100258.09
2018-07-25T04:06:39.235Z,100261.37
2018-07-25T04:09:08.432Z,100264.77
2018-07-25T04:11:36.423Z,100268.00
2018-07-25T04:14:04.282Z,100268.49
2018-07-25T04:16:32.070Z,100260.69
2018-07-25T04:18:59.917Z,100259.84
2018-07-25T04:21:27.667Z,100259.19
2018-07-25T04:23:55.448Z,100263.73
2018-07-25T04:26:23.311Z,100262.34
2018-07-25T04:28:51.139Z,100267.02
2018-07-25T04:31:18.887Z,100264.75
2018-07-25T04:33:46.732Z,100268.27
2018-07-25T04:36:14.503Z,100274.67
2018-07-25T04:38:42.287Z,100280.45
2018-07-25T04:41:10.055Z,100271.87
2018-07-25T04:43:37.879Z,100282.66
2018-07-25T04:46:05.742Z,100282.59
2018-07-25T04:48:33.504Z,100286.09
2018-07-25T04:51:01.268Z,100285.14
2018-07-25T04:53:29.083Z,100284.58
2018-07-25T04:55:57.111Z,100283.90
2018-07-25T04:58:25.775Z,100285.98
2018-07-25T05:00:53.630Z,100285.14
2018-07-25T05:03:21.486Z,100293.27
2018-07-25T05:05:49.251Z,100291.84
2018-07-25T05:08:17.096Z,100300.75
2018-07-25T05:10:44.838Z,100290.55
2018-07-25T05:13:12.627Z,100293.26
2018-07-25T05:15:40.499Z,100293.46
2018-07-25T05:18:08.375Z,100300.55
2018-07-25T05:20:36.147Z,100299.69
2018-07-25T05:23:03.924Z,100298.88
2018-07-25T05:25:31.755Z,100294.59
2018-07-25T05:27:59.544Z,100301.12
2018-07-25T05:30:27.456Z,100306.03
2018-07-25T05:32:55.243Z,100298.95
2018-07-25T05:35:23.011Z,100299.51
2018-07-25T05:37:50.808Z,100302.69
2018-07-25T05:40:18.786Z,100295.63
2018-07-25T05:42:46.607Z,100297.16
2018-07-25T05:45:14.407Z,100296.61
2018-07-25T05:47:42.211Z,100300.56
2018-07-25T05:50:10.084Z,100305.59
2018-07-25T05:52:37.904Z,100298.45
2018-07-25T05:55:05.809Z,100309.66
2018-07-25T05:57:34.236Z,100316.39
2018-07-25T06:00:02.025Z,100313.88
2018-07-25T06:02:29.856Z,100311.50
2018-07-25T06:04:57.666Z,100314.07
2018-07-25T06:07:25.502Z,100314.30
2018-07-25T06:09:53.323Z,100317.92
2018-07-25T06:12:21.120Z,100311.39
2018-07-25T06:14:48.909Z,100319.70
2018-07-25T06:17:16.673Z,100315.11
2018-07-25T06:19:44.450Z,100317.82
2018-07-25T06:22:12.311Z,100316.62
2018-07-25T06:24:40.117Z,100313.33
2018-07-25T06:27:08.735Z,100313.48
2018-07-25T06:29:36.492Z,100312.92
2018-07-25T06:32:04.303Z,100309.53
2018-07-25T06:34:32.123Z,100315.25
2018-07-25T06:36:59.981Z,100311.16
2018-07-25T06:39:27.784Z,100313.48
2018-07-25T06:41:55.568Z,100316.73
2018-07-25T06:44:23.351Z,100320.55
2018-07-25T06:46:51.079Z,100318.73
2018-07-25T06:49:18.883Z,100322.63
2018-07-25T06:51:46.657Z,100321.19
2018-07-25T06:54:14.411Z,100326.72
2018-07-25T06:56:42.126Z,100323.36
2018-07-25T06:59:09.881Z,100323.06
2018-07-25T07:01:37.655Z,100325.22
2018-07-25T07:04:05.581Z,100326.83
2018-07-25T07:06:33.384Z,100330.72
2018-07-25T07:09:01.272Z,100331.21
2018-07-25T07:11:29.413Z,100329.07
2018-07-25T07:13:57.410Z,100323.84
2018-07-25T07:16:25.288Z,100323.47
2018-07-25T07:18:53.107Z,100321.67
2018-07-25T07:21:20.955Z,100321.50
2018-07-25T07:23:55.637Z,100326.98
2018-07-25T07:26:26.187Z,100323.80
2018-07-25T07:28:57.113Z,100322.52
2018-07-25T07:31:28.099Z,100323.33
2018-07-25T07:33:55.772Z,100322.98
2018-07-25T07:36:23.577Z,100326.78
2018-07-25T07:38:51.337Z,100327.45
2018-07-25T07:41:19.155Z,100323.83
2018-07-25T07:43:46.881Z,100326.30
2018-07-25T07:46:14.735Z,100316.80
2018-07-25T07:48:42.512Z,100318.42
2018-07-25T07:51:10.351Z,100316.17
2018-07-25T07:53:38.202Z,100324.31
2018-07-25T07:56:05.964Z,100313.39
2018-07-25T07:58:33.826Z,100312.96
2018-07-25T08:01:01.716Z,100314.64
2018-07-25T08:03:29.564Z,100315.19
2018-07-25T08:05:57.478Z,100314.62
2018-07-25T08:08:25.311Z,100316.99
2018-07-25T08:10:53.140Z,100317.51
2018-07-25T08:13:23.244Z,100313.75
2018-07-25T08:15:50.987Z,100313.56
2018-07-25T08:18:18.854Z,100313.56
2018-07-25T08:20:47.374Z,100315.81
2018-07-25T08:23:19.601Z,100317.80
2018-07-25T08:25:47.945Z,100316.09
2018-07-25T08:28:15.732Z,100315.28
2018-07-25T08:30:43.566Z,100314.68
2018-07-25T08:33:11.463Z,100322.56
2018-07-25T08:35:39.359Z,100318.65
2018-07-25T08:38:07.189Z,100316.30
2018-07-25T08:40:34.927Z,100314.58
2018-07-25T08:43:02.659Z,100320.58
2018-07-25T08:45:30.507Z,100315.40
2018-07-25T08:47:59.411Z,100316.13
2018-07-25T08:50:27.263Z,100315.83
2018-07-25T08:52:55.055Z,100313.50
2018-07-25T08:55:22.824Z,100308.84
2018-07-25T08:57:50.790Z,100310.20
2018-07-25T09:00:18.552Z,100311.37
2018-07-25T09:02:46.387Z,100310.55
2018-07-25T09:05:14.127Z,100310.83
2018-07-25T09:07:41.979Z,100316.03
2018-07-25T09:10:09.817Z,100310.81
2018-07-25T09:12:37.672Z,100307.53
2018-07-25T09:15:05.795Z,100309.27
2018-07-25T09:17:33.563Z,100310.74
2018-07-25T09:20:01.320Z,100311.30
2018-07-25T09:22:29.114Z,100306.59
2018-07-25T09:24:56.939Z,100304.96
2018-07-25T09:27:24.695Z,100303.96
2018-07-25T09:29:52.463Z,100297.48
2018-07-25T09:32:20.235Z,100305.89
2018-07-25T09:34:48.003Z,100301.80
2018-07-25T09:37:15.776Z,100301.09
2018-07-25T09:39:43.587Z,100310.00
2018-07-25T09:42:11.381Z,100295.92
2018-07-25T09:44:39.177Z,100302.86
2018-07-25T09:47:07.208Z,100292.35
2018-07-25T09:49:34.964Z,100292.86
2018-07-25T09:52:02.806Z,100292.09
2018-07-25T09:54:30.569Z,100289.91
2018-07-25T09:56:58.323Z,100282.53
2018-07-25T09:59:26.178Z,100282.97
2018-07-25T10:01:54.028Z,100283.89
2018-07-25T10:04:21.828Z,100277.34
2018-07-25T10:06:49.584Z,100277.11
2018-07-25T10:09:17.407Z,100274.20
2018-07-25T10:11:45.231Z,100267.69
2018-07-25T10:14:13.047Z,100271.69
2018-07-25T10:16:40.878Z,100263.86
2018-07-25T10:19:08.679Z,100270.70
2018-07-25T10:21:36.418Z,100262.86
2018-07-25T10:24:04.540Z,100259.16
2018-07-25T10:26:32.332Z,100251.81
2018-07-25T10:29:00.058Z,100262.05
2018-07-25T10:31:27.772Z,100249.83
2018-07-25T10:33:55.584Z,100252.58
2018-07-25T10:36:23.372Z,100247.72
2018-07-25T10:38:51.107Z,100246.80
2018-07-25T10:41:18.887Z,100245.89
2018-07-25T10:43:46.739Z,100245.36
2018-07-25T10:46:14.484Z,100246.23
2018-07-25T10:48:42.293Z,100243.16
2018-07-25T10:51:10.124Z,100241.84
2018-07-25T10:53:37.895Z,100234.42
2018-07-25T10:56:05.758Z,100229.13
2018-07-25T10:58:33.555Z,100229.42
2018-07-25T11:01:01.311Z,100225.81
2018-07-25T11:03:29.808Z,100227.89
2018-07-25T11:05:57.666Z,100230.39
2018-07-25T11:08:25.511Z,100228.05
2018-07-25T11:10:53.303Z,100222.23
2018-07-25T11:13:21.106Z,100218.12
2018-07-25T11:15:48.891Z,100219.00
2018-07-25T11:18:16.952Z,100217.08
2018-07-25T11:20:44.777Z,100218.12
2018-07-25T11:23:12.745Z,100209.56
2018-07-25T11:25:40.503Z,100207.64
2018-07-25T11:28:08.351Z,100207.72
2018-07-25T11:30:36.109Z,100205.34
2018-07-25T11:33:03.952Z,100203.37
2018-07-25T11:35:31.770Z,100203.67
2018-07-25T11:37:59.552Z,100200.48
2018-07-25T11:40:27.380Z,100202.38
2018-07-25T11:42:55.180Z,100198.66
2018-07-25T11:45:23.105Z,100194.39
2018-07-25T11:47:50.951Z,100186.37
2018-07-25T11:50:18.830Z,100187.89
2018-07-25T11:52:46.619Z,100194.33
2018-07-25T11:55:14.379Z,100189.26
2018-07-25T11:57:42.166Z,100184.51
2018-07-25T12:00:09.995Z,100184.75
2018-07-25T12:02:37.828Z,100175.28
2018-07-25T12:05:05.903Z,100179.78
2018-07-25T12:07:33.807Z,100175.75
2018-07-25T12:10:01.691Z,100172.39
2018-07-25T12:12:29.468Z,100167.24
2018-07-25T12:14:57.254Z,100169.73
2018-07-25T12:17:25.106Z,100168.63
2018-07-25T12:19:52.966Z,100165.56
2018-07-25T12:22:20.751Z,100165.35
2018-07-25T12:24:48.594Z,100165.56
2018-07-25T12:27:16.384Z,100158.83
2018-07-25T12:29:44.103Z,100165.74
2018-07-25T12:32:13.167Z,100164.28
2018-07-25T12:34:40.885Z,100166.75
2018-07-25T12:37:08.644Z,100164.50
2018-07-25T12:39:36.419Z,100152.31
2018-07-25T12:42:04.238Z,100149.59
2018-07-25T12:44:32.021Z,100153.42
2018-07-25T12:46:59.840Z,100154.63
2018-07-25T12:49:27.620Z,100150.23
2018-07-25T12:51:55.515Z,100148.23
2018-07-25T12:54:23.411Z,100152.00
2018-07-25T12:56:51.245Z,100150.23
2018-07-25T12:59:19.032Z,100145.95
2018-07-25T13:01:46.819Z,100146.06
2018-07-25T13:04:14.539Z,100145.48
2018-07-25T13:06:42.366Z,100138.42
2018-07-25T13:09:11.247Z,100132.91
2018-07-25T13:11:38.979Z,100138.48
2018-07-25T13:14:06.992Z,100129.16
2018-07-25T13:16:34.946Z,100129.28
2018-07-25T13:19:02.947Z,100132.26
2018-07-25T13:21:30.760Z,100127.00
2018-07-25T13:23:58.656Z,100124.89
2018-07-25T13:26:26.443Z,100123.30
2018-07-25T13:28:54.207Z,100122.08
2018-07-25T13:31:22.070Z,100120.89
2018-07-25T13:33:49.883Z,100122.48
2018-07-25T13:36:17.761Z,100116.43
2018-07-25T13:38:45.577Z,100112.09
2018-07-25T13:41:13.410Z,100113.68
2018-07-25T13:43:41.139Z,100114.30
2018-07-25T13:46:08.999Z,100108.27
2018-07-25T13:48:36.775Z,100101.64
2018-07-25T13:51:05.661Z,100111.55
2018-07-25T13:53:35.932Z,100115.33
2018-07-25T13:56:08.190Z,100115.54
2018-07-25T13:58:36.038Z,100112.45
2018-07-25T14:01:04.686Z,100106.22
2018-07-25T14:03:32.483Z,100116.64
2018-07-25T14:06:00.208Z,100114.22
2018-07-25T14:08:28.220Z,100120.30
2018-07-25T14:10:56.031Z,100110.80
2018-07-25T14:13:23.871Z,100115.36
2018-07-25T14:15:51.623Z,100116.70
2018-07-25T14:18:19.451Z,100118.14
2018-07-25T14:20:47.797Z,100108.56
2018-07-25T14:23:15.875Z,100115.28
2018-07-25T14:25:44.176Z,100106.41
2018-07-25T14:28:12.396Z,100105.40
2018-07-25T14:30:46.307Z,100098.37
2018-07-25T14:33:15.652Z,100107.52
2018-07-25T14:35:43.510Z,100101.72
2018-07-25T14:38:16.433Z,100097.91
2018-07-25T14:40:47.190Z,100101.51
2018-07-25T14:43:18.122Z,100106.61
2018-07-25T14:45:46.980Z,100096.13
2018-07-25T14:48:14.893Z,100097.19
2018-07-25T14:50:43.007Z,100095.02
2018-07-25T14:53:10.905Z,100083.98
2018-07-25T14:55:38.747Z,100088.74
2018-07-25T14:58:06.824Z,100083.33
2018-07-25T15:00:34.651Z,100085.30
2018-07-25T15:03:02.510Z,100086.80
2018-07-25T15:05:30.359Z,100090.78
2018-07-25T15:07:58.155Z,100081.14
2018-07-25T15:10:26.028Z,100082.72
2018-07-25T15:12:56.078Z,100087.80
2018-07-25T15:15:28.656Z,100079.99
2018-07-25T15:17:56.886Z,100082.60
2018-07-25T15:20:32.440Z,100075.78
2018-07-25T15:23:00.407Z,100070.73
2018-07-25T15:25:28.201Z,100067.77
2018-07-25T15:27:56.148Z,100069.38
2018-07-25T15:30:27.429Z,100071.42
2018-07-25T15:32:55.323Z,100068.06
2018-07-25T15:35:27.287Z,100068.13
2018-07-25T15:38:05.017Z,100070.98
2018-07-25T15:40:33.160Z,100070.98
2018-07-25T15:43:12.228Z,100068.43
2018-07-25T15:45:41.919Z,100058.70
2018-07-25T15:48:09.847Z,100058.83
2018-07-25T15:50:37.687Z,100053.55
2018-07-25T15:53:05.428Z,100051.14
2018-07-25T15:55:33.275Z,100049.27
2018-07-25T15:58:01.027Z,100050.63
2018-07-25T16:00:30.289Z,100045.48
2018-07-25T16:02:58.139Z,100049.13
2018-07-25T16:05:26.043Z,100048.22
2018-07-25T16:07:53.779Z,100049.72
2018-07-25T16:10:21.559Z,100050.84
2018-07-25T16:12:49.367Z,100040.71
2018-07-25T16:15:17.142Z,100041.49
2018-07-25T16:17:44.895Z,100034.99
2018-07-25T16:20:12.615Z,100038.66
2018-07-25T16:22:40.460Z,100035.97
2018-07-25T16:25:08.283Z,100026.79
2018-07-25T16:27:36.091Z,100029.59
2018-07-25T16:30:04.294Z,100027.22
2018-07-25T16:32:32.133Z,100034.87
2018-07-25T16:34:59.940Z,100036.19
2018-07-25T16:37:27.719Z,100041.20
2018-07-25T16:39:55.579Z,100044.85
2018-07-25T16:42:23.391Z,100050.10
2018-07-25T16:44:51.257Z,100049.36
2018-07-25T16:47:19.079Z,100041.40
2018-07-25T16:49:46.858Z,100045.58
2018-07-25T16:52:14.707Z,100050.91
2018-07-25T16:54:42.631Z,100046.00
2018-07-25T16:57:10.468Z,100054.08
2018-07-25T16:59:38.251Z,100052.41
2018-07-25T17:02:06.092Z,100049.88
2018-07-25T17:04:33.871Z,100054.06
2018-07-25T17:07:01.683Z,100052.46
2018-07-25T17:09:29.476Z,100059.88
2018-07-25T17:11:57.212Z,100070.11
2018-07-25T17:14:25.058Z,100084.58
2018-07-25T17:16:52.827Z,100088.73
2018-07-25T17:19:20.615Z,100092.00
2018-07-25T17:21:48.411Z,100094.54
2018-07-25T17:24:16.179Z,100092.12
2018-07-25T17:26:43.970Z,100095.56
2018-07-25T17:29:11.835Z,100104.94
2018-07-25T17:31:39.667Z,100114.25
2018-07-25T17:34:07.463Z,100114.45
2018-07-25T17:36:35.296Z,100116.52
2018-07-25T17:39:05.512Z,100118.54
2018-07-25T17:41:33.365Z,100120.96
2018-07-25T17:44:01.129Z,100120.38
2018-07-25T17:46:28.871Z,100127.08
2018-07-25T17:48:56.707Z,100140.41
2018-07-25T17:51:24.499Z,100132.45
2018-07-25T17:53:52.306Z,100131.41
2018-07-25T17:56:20.147Z,100126.89
2018-07-25T17:58:47.964Z,100143.71
2018-07-25T18:01:15.808Z,100136.16
2018-07-25T18:03:43.756Z,100154.85
2018-07-25T18:06:11.604Z,100154.87
2018-07-25T18:08:39.463Z,100160.83
2018-07-25T18:11:07.211Z,100169.26
2018-07-25T18:13:40.603Z,100169.17
2018-07-25T18:16:08.420Z,100166.63
2018-07-25T18:18:36.255Z,100170.10
2018-07-25T18:21:04.112Z,100165.86
2018-07-25T18:23:32.020Z,100176.34
2018-07-25T18:25:59.824Z,100176.41
2018-07-25T18:28:27.591Z,100175.14
2018-07-25T18:30:55.427Z,100178.56
2018-07-25T18:33:23.246Z,100176.59
2018-07-25T18:35:51.042Z,100173.48
2018-07-25T18:38:19.035Z,100177.30
2018-07-25T18:40:46.846Z,100179.94
2018-07-25T18:43:14.671Z,100177.71
2018-07-25T18:45:42.519Z,100180.98
2018-07-25T18:48:10.286Z,100183.91
2018-07-25T18:50:37.993Z,100189.09
2018-07-25T18:53:06.018Z,100196.70
2018-07-25T18:55:33.930Z,100196.92
2018-07-25T18:58:01.747Z,100199.19
2018-07-25T19:00:29.488Z,100191.33
2018-07-25T19:02:57.309Z,100201.55
2018-07-25T19:05:30.848Z,100203.58
2018-07-25T19:07:59.847Z,100213.59
2018-07-25T19:10:27.667Z,100223.39
2018-07-25T19:12:55.802Z,100227.33
2018-07-25T19:15:30.841Z,100228.94
2018-07-25T19:17:59.231Z,100228.98
2018-07-25T19:20:27.074Z,100224.60
2018-07-25T19:22:54.802Z,100232.52
2018-07-25T19:25:22.557Z,100224.13
2018-07-25T19:27:50.691Z,100227.59
2018-07-25T19:30:18.535Z,100228.06
2018-07-25T19:32:46.307Z,100228.35
2018-07-25T19:35:14.203Z,100232.88
2018-07-25T19:37:42.271Z,100230.97
2018-07-25T19:40:10.063Z,100244.11
2018-07-25T19:42:37.887Z,100239.19
2018-07-25T19:45:05.807Z,100241.70
2018-07-25T19:47:33.638Z,100246.26
2018-07-25T19:50:01.460Z,100251.47
2018-07-25T19:52:29.277Z,100253.36
2018-07-25T19:54:57.055Z,100259.09
2018-07-25T19:57:24.895Z,100260.64
2018-07-25T19:59:52.683Z,100266.05
2018-07-25T20:02:20.494Z,100274.89
2018-07-25T20:04:48.271Z,100268.04
2018-07-25T20:07:16.123Z,100268.44
2018-07-25T20:09:43.958Z,100274.14
2018-07-25T20:12:11.704Z,100277.80
2018-07-25T20:14:45.109Z,100276.88
2018-07-25T20:17:13.628Z,100268.97
2018-07-25T20:19:41.456Z,100267.56
2018-07-25T20:22:09.270Z,100261.72
2018-07-25T20:24:37.054Z,100261.16
2018-07-25T20:27:04.991Z,100258.01
2018-07-25T20:29:32.847Z,100255.25
2018-07-25T20:32:00.586Z,100256.17
2018-07-25T20:34:28.471Z,100251.73
2018-07-25T20:36:56.295Z,100257.10
2018-07-25T20:39:24.127Z,100252.48
2018-07-25T20:41:51.963Z,100263.78
2018-07-25T20:44:19.754Z,100253.30
2018-07-25T20:46:47.507Z,100257.30
2018-07-25T20:49:15.299Z,100246.30
2018-07-25T20:51:43.089Z,100248.53
2018-07-25T20:54:10.928Z,100248.73
2018-07-25T20:56:38.735Z,100245.36
2018-07-25T20:59:06.520Z,100248.30
2018-07-25T21:01:34.351Z,100248.28
2018-07-25T21:04:02.260Z,100253.20
2018-07-25T21:06:30.024Z,100255.67
2018-07-25T21:08:57.819Z,100252.16
2018-07-25T21:11:25.624Z,100249.12
2018-07-25T21:13:53.347Z,100262.12
2018-07-25T21:16:21.107Z,100254.72
2018-07-25T21:18:48.952Z,100260.58
2018-07-25T21:21:16.796Z,100262.80
2018-07-25T21:23:44.600Z,100260.56
2018-07-25T21:26:12.379Z,100267.59
2018-07-25T21:28:40.144Z,100269.14
2018-07-25T21:31:07.976Z,100270.09
2018-07-25T21:33:35.740Z,100271.73
2018-07-25T21:36:03.540Z,100277.00
2018-07-25T21:38:31.555Z,100263.32
2018-07-25T21:40:59.359Z,100274.55
2018-07-25T21:43:27.175Z,100267.16
2018-07-25T21:45:54.973Z,100271.75
2018-07-25T21:48:22.809Z,100268.27
2018-07-25T21:50:50.753Z,100284.41
2018-07-25T21:53:18.550Z,100275.28
2018-07-25T21:55:46.368Z,100276.64
2018-07-25T21:58:14.131Z,100277.59
2018-07-25T22:00:48.937Z,100279.68
2018-07-25T22:03:17.015Z,100280.16
2018-07-25T22:05:44.823Z,100281.92
2018-07-25T22:08:12.611Z,100283.19
2018-07-25T22:10:40.404Z,100284.59
2018-07-25T22:13:08.336Z,100285.63
2018-07-25T22:15:36.124Z,100284.11
2018-07-25T22:18:04.119Z,100288.44
2018-07-25T22:20:31.901Z,100287.82
2018-07-25T22:22:59.687Z,100292.01
2018-07-25T22:25:27.462Z,100293.88
2018-07-25T22:27:55.324Z,100294.42
2018-07-25T22:30:23.275Z,100289.34
2018-07-25T22:32:51.123Z,100289.84
2018-07-25T22:35:18.931Z,100289.02
2018-07-25T22:37:46.947Z,100293.84
2018-07-25T22:40:14.844Z,100278.80
2018-07-25T22:42:42.639Z,100276.14
2018-07-25T22:45:10.451Z,100273.63
2018-07-25T22:47:38.311Z,100287.34
2018-07-25T22:50:06.332Z,100284.52
2018-07-25T22:52:34.136Z,100288.72
2018-07-25T22:55:01.982Z,100289.64
2018-07-25T22:57:29.779Z,100288.09
2018-07-25T22:59:57.818Z,100282.93
2018-07-25T23:02:27.372Z,100287.71
2018-07-25T23:04:55.174Z,100287.48
2018-07-25T23:07:22.958Z,100283.00
2018-07-25T23:09:50.748Z,100291.45
2018-07-25T23:12:18.576Z,100290.39
2018-07-25T23:14:46.320Z,100286.31
2018-07-25T23:17:14.091Z,100287.13
2018-07-25T23:19:41.944Z,100282.94
2018-07-25T23:22:09.814Z,100289.27
2018-07-25T23:24:37.779Z,100285.73
2018-07-25T23:27:05.575Z,100282.73
2018-07-25T23:29:36.314Z,100274.72
2018-07-25T23:32:10.595Z,100281.52
2018-07-25T23:34:38.395Z,100279.26
2018-07-25T23:37:06.467Z,100283.99
2018-07-25T23:39:34.339Z,100275.52
2018-07-25T23:42:02.093Z,100271.21
2018-07-25T23:44:29.863Z,100282.47
2018-07-25T23:46:57.839Z,100276.77
2018-07-25T23:49:25.667Z,100279.66
2018-07-25T23:51:54.023Z,100275.98
2018-07-25T23:54:21.940Z,100273.49
2018-07-25T23:56:49.868Z,100277.98
2018-07-25T23:59:17.703Z,100275.27
